sensor_id;sensor_type;location;lat;lon;timestamp;pressure;altitude;pressure_sealevel;temperature;humidity
70458;BME280;57919;56.194;95.716;2022-11-20T00:08:22;98857.16;;;-13.88;70.10
70458;BME280;57919;56.194;95.716;2022-11-20T00:18:25;98827.75;;;-13.64;69.73
70458;BME280;57919;56.194;95.716;2022-11-20T00:28:27;98816.50;;;-13.28;69.28
70458;BME280;57919;56.194;95.716;2022-11-20T00:38:31;98745.41;;;-13.43;69.44
70458;BME280;57919;56.194;95.716;2022-11-20T00:48:34;98783.56;;;-13.46;69.98
70458;BME280;57919;56.194;95.716;2022-11-20T00:58:38;98735.88;;;-13.68;70.14
70458;BME280;57919;56.194;95.716;2022-11-20T01:08:41;98749.75;;;-13.37;69.38
70458;BME280;57919;56.194;95.716;2022-11-20T01:18:45;98740.19;;;-13.21;70.00
70458;BME280;57919;56.194;95.716;2022-11-20T01:28:47;98726.22;;;-13.02;70.36
70458;BME280;57919;56.194;95.716;2022-11-20T01:38:58;98708.81;;;-12.82;69.41
70458;BME280;57919;56.194;95.716;2022-11-20T01:49:20;98725.16;;;-12.45;69.10
70458;BME280;57919;56.194;95.716;2022-11-20T01:59:26;98697.09;;;-12.04;69.88
70458;BME280;57919;56.194;95.716;2022-11-20T02:09:30;98677.88;;;-11.90;68.98
70458;BME280;57919;56.194;95.716;2022-11-20T02:19:32;98660.47;;;-11.85;68.86
70458;BME280;57919;56.194;95.716;2022-11-20T02:29:36;98662.81;;;-11.59;69.21
70458;BME280;57919;56.194;95.716;2022-11-20T02:39:40;98657.34;;;-11.34;68.47
70458;BME280;57919;56.194;95.716;2022-11-20T02:49:41;98643.03;;;-11.00;69.08
70458;BME280;57919;56.194;95.716;2022-11-20T02:59:43;98624.63;;;-10.88;68.28
70458;BME280;57919;56.194;95.716;2022-11-20T03:09:45;98572.81;;;-10.57;68.61
70458;BME280;57919;56.194;95.716;2022-11-20T03:19:47;98556.38;;;-10.09;68.26
70458;BME280;57919;56.194;95.716;2022-11-20T03:29:49;98566.41;;;-9.85;67.61
70458;BME280;57919;56.194;95.716;2022-11-20T03:39:51;98548.13;;;-9.40;68.03
70458;BME280;57919;56.194;95.716;2022-11-20T03:49:53;98560.16;;;-8.89;68.19
70458;BME280;57919;56.194;95.716;2022-11-20T03:59:55;98564.53;;;-8.13;67.65
70458;BME280;57919;56.194;95.716;2022-11-20T04:10:00;98569.56;;;-8.04;66.57
70458;BME280;57919;56.194;95.716;2022-11-20T04:20:02;98568.59;;;-7.66;66.82
70458;BME280;57919;56.194;95.716;2022-11-20T04:30:05;98556.28;;;-7.32;66.11
70458;BME280;57919;56.194;95.716;2022-11-20T04:40:08;98547.09;;;-6.86;65.49
70458;BME280;57919;56.194;95.716;2022-11-20T04:50:10;98543.13;;;-6.42;65.50
70458;BME280;57919;56.194;95.716;2022-11-20T05:00:12;98544.19;;;-5.68;65.97
70458;BME280;57919;56.194;95.716;2022-11-20T05:10:15;98527.13;;;-5.08;64.48
70458;BME280;57919;56.194;95.716;2022-11-20T05:20:17;98524.28;;;-5.02;64.06
70458;BME280;57919;56.194;95.716;2022-11-20T05:30:19;98517.44;;;-4.61;63.97
70458;BME280;57919;56.194;95.716;2022-11-20T05:40:21;98519.44;;;-4.22;64.36
70458;BME280;57919;56.194;95.716;2022-11-20T05:50:23;98530.69;;;-3.75;64.27
70458;BME280;57919;56.194;95.716;2022-11-20T06:00:24;98517.75;;;-2.81;63.27
70458;BME280;57919;56.194;95.716;2022-11-20T06:10:27;98527.19;;;-2.19;62.24
70458;BME280;57919;56.194;95.716;2022-11-20T06:20:29;98522.47;;;-2.13;60.08
70458;BME280;57919;56.194;95.716;2022-11-20T06:30:31;98518.69;;;-3.21;59.76
70458;BME280;57919;56.194;95.716;2022-11-20T06:40:33;98555.47;;;-3.78;61.72
70458;BME280;57919;56.194;95.716;2022-11-20T06:50:38;98567.16;;;-4.05;62.41
70458;BME280;57919;56.194;95.716;2022-11-20T07:00:40;98564.75;;;-4.33;64.87
70458;BME280;57919;56.194;95.716;2022-11-20T07:10:42;98592.09;;;-3.91;66.95
70458;BME280;57919;56.194;95.716;2022-11-20T07:20:44;98603.47;;;-3.46;66.09
70458;BME280;57919;56.194;95.716;2022-11-20T07:30:53;98628.03;;;-3.65;67.69
70458;BME280;57919;56.194;95.716;2022-11-20T07:40:57;98644.06;;;-3.91;69.03
70458;BME280;57919;56.194;95.716;2022-11-20T07:50:59;98660.84;;;-4.15;68.01
70458;BME280;57919;56.194;95.716;2022-11-20T08:01:05;98661.16;;;-4.23;67.41
70458;BME280;57919;56.194;95.716;2022-11-20T08:11:11;98662.22;;;-4.52;66.25
70458;BME280;57919;56.194;95.716;2022-11-20T08:21:31;98662.78;;;-4.92;66.35
70458;BME280;57919;56.194;95.716;2022-11-20T08:31:33;98690.25;;;-4.98;65.86
70458;BME280;57919;56.194;95.716;2022-11-20T08:41:35;98717.03;;;-5.10;65.87
70458;BME280;57919;56.194;95.716;2022-11-20T08:51:38;98740.44;;;-5.27;65.90
70458;BME280;57919;56.194;95.716;2022-11-20T09:01:40;98764.56;;;-5.39;66.07
70458;BME280;57919;56.194;95.716;2022-11-20T09:11:47;98775.03;;;-5.66;65.80
70458;BME280;57919;56.194;95.716;2022-11-20T09:21:51;98825.28;;;-5.72;65.87
70458;BME280;57919;56.194;95.716;2022-11-20T09:31:53;98845.13;;;-6.21;66.99
70458;BME280;57919;56.194;95.716;2022-11-20T10:13:48;98907.50;;;-5.31;67.00
70458;BME280;57919;56.194;95.716;2022-11-20T10:24:34;98901.81;;;-5.47;66.38
70458;BME280;57919;56.194;95.716;2022-11-20T10:34:50;98921.31;;;-5.23;66.23
70458;BME280;57919;56.194;95.716;2022-11-20T10:45:01;98927.88;;;-5.36;65.23
70458;BME280;57919;56.194;95.716;2022-11-20T11:15:42;98967.16;;;-6.60;64.27
70458;BME280;57919;56.194;95.716;2022-11-20T11:25:57;98985.94;;;-6.77;63.48
70458;BME280;57919;56.194;95.716;2022-11-20T11:36:14;98993.50;;;-7.02;63.13
70458;BME280;57919;56.194;95.716;2022-11-20T11:46:35;99039.03;;;-7.00;62.75
70458;BME280;57919;56.194;95.716;2022-11-20T11:56:37;99042.31;;;-7.33;61.43
70458;BME280;57919;56.194;95.716;2022-11-20T12:06:44;99077.53;;;-7.93;60.80
70458;BME280;57919;56.194;95.716;2022-11-20T12:16:47;99125.22;;;-8.22;61.45
70458;BME280;57919;56.194;95.716;2022-11-20T12:37:39;99165.78;;;-8.44;57.78
70458;BME280;57919;56.194;95.716;2022-11-20T13:08:55;99274.56;;;-9.89;55.52
70458;BME280;57919;56.194;95.716;2022-11-20T13:19:04;99272.88;;;-10.02;53.11
70458;BME280;57919;56.194;95.716;2022-11-20T13:29:18;99293.88;;;-10.16;51.16
70458;BME280;57919;56.194;95.716;2022-11-20T13:39:36;99309.72;;;-10.58;50.99
70458;BME280;57919;56.194;95.716;2022-11-20T13:49:40;99322.00;;;-11.38;54.11
70458;BME280;57919;56.194;95.716;2022-11-20T13:59:57;99360.25;;;-11.54;54.77
70458;BME280;57919;56.194;95.716;2022-11-20T14:10:00;99362.75;;;-11.98;55.09
70458;BME280;57919;56.194;95.716;2022-11-20T14:20:05;99398.28;;;-12.20;55.69
70458;BME280;57919;56.194;95.716;2022-11-20T14:30:19;99413.78;;;-12.44;56.27
70458;BME280;57919;56.194;95.716;2022-11-20T14:40:35;99434.47;;;-12.65;56.80
70458;BME280;57919;56.194;95.716;2022-11-20T14:50:38;99443.75;;;-12.96;57.32
70458;BME280;57919;56.194;95.716;2022-11-20T15:00:41;99448.03;;;-13.03;57.34
70458;BME280;57919;56.194;95.716;2022-11-20T15:10:51;99449.66;;;-13.14;57.26
70458;BME280;57919;56.194;95.716;2022-11-20T15:20:55;99455.66;;;-13.24;56.89
70458;BME280;57919;56.194;95.716;2022-11-20T15:30:57;99485.88;;;-13.38;57.21
70458;BME280;57919;56.194;95.716;2022-11-20T15:40:59;99490.66;;;-13.72;57.91
70458;BME280;57919;56.194;95.716;2022-11-20T16:01:14;99485.50;;;-13.69;58.96
70458;BME280;57919;56.194;95.716;2022-11-20T16:11:17;99489.13;;;-13.56;58.62
70458;BME280;57919;56.194;95.716;2022-11-20T16:21:20;99497.88;;;-13.50;57.39
70458;BME280;57919;56.194;95.716;2022-11-20T16:31:22;99462.09;;;-13.69;57.28
70458;BME280;57919;56.194;95.716;2022-11-20T16:41:25;99505.81;;;-13.39;57.63
70458;BME280;57919;56.194;95.716;2022-11-20T16:51:29;99503.91;;;-13.52;57.72
70458;BME280;57919;56.194;95.716;2022-11-20T17:01:31;99494.31;;;-13.56;57.42
70458;BME280;57919;56.194;95.716;2022-11-20T17:11:33;99505.06;;;-13.29;57.17
70458;BME280;57919;56.194;95.716;2022-11-20T17:21:36;99485.06;;;-13.31;56.87
70458;BME280;57919;56.194;95.716;2022-11-20T17:31:38;99485.22;;;-13.18;57.93
70458;BME280;57919;56.194;95.716;2022-11-20T17:41:40;99473.81;;;-13.30;57.92
70458;BME280;57919;56.194;95.716;2022-11-20T17:51:42;99494.59;;;-13.33;58.15
70458;BME280;57919;56.194;95.716;2022-11-20T18:01:45;99475.34;;;-13.48;58.15
70458;BME280;57919;56.194;95.716;2022-11-20T18:11:47;99484.03;;;-14.15;57.95
70458;BME280;57919;56.194;95.716;2022-11-20T18:21:50;99496.06;;;-14.78;58.01
70458;BME280;57919;56.194;95.716;2022-11-20T18:31:52;99480.75;;;-15.62;58.50
70458;BME280;57919;56.194;95.716;2022-11-20T18:41:54;99487.88;;;-15.49;58.54
70458;BME280;57919;56.194;95.716;2022-11-20T18:52:15;99468.19;;;-15.84;58.36
70458;BME280;57919;56.194;95.716;2022-11-20T19:02:18;99503.75;;;-16.18;58.87
70458;BME280;57919;56.194;95.716;2022-11-20T19:12:23;99500.72;;;-15.98;59.10
70458;BME280;57919;56.194;95.716;2022-11-20T19:22:25;99479.03;;;-16.04;59.04
70458;BME280;57919;56.194;95.716;2022-11-20T19:32:27;99494.13;;;-16.23;58.90
70458;BME280;57919;56.194;95.716;2022-11-20T19:42:30;99497.78;;;-16.53;59.05
70458;BME280;57919;56.194;95.716;2022-11-20T19:52:32;99481.28;;;-16.94;59.89
70458;BME280;57919;56.194;95.716;2022-11-20T20:02:36;99473.69;;;-17.22;60.10
70458;BME280;57919;56.194;95.716;2022-11-20T20:12:38;99437.75;;;-17.12;60.05
70458;BME280;57919;56.194;95.716;2022-11-20T20:22:40;99458.50;;;-16.74;60.33
70458;BME280;57919;56.194;95.716;2022-11-20T20:32:42;99389.44;;;-16.77;60.38
70458;BME280;57919;56.194;95.716;2022-11-20T20:42:44;99431.47;;;-16.48;60.49
70458;BME280;57919;56.194;95.716;2022-11-20T20:52:46;99414.59;;;-16.30;60.29
70458;BME280;57919;56.194;95.716;2022-11-20T21:02:47;99416.72;;;-16.11;60.19
70458;BME280;57919;56.194;95.716;2022-11-20T21:12:49;99422.00;;;-16.05;60.74
70458;BME280;57919;56.194;95.716;2022-11-20T21:22:51;99412.69;;;-16.38;60.23
70458;BME280;57919;56.194;95.716;2022-11-20T21:32:54;99392.88;;;-16.37;60.45
70458;BME280;57919;56.194;95.716;2022-11-20T21:42:56;99380.81;;;-16.37;61.38
70458;BME280;57919;56.194;95.716;2022-11-20T21:52:58;99375.66;;;-16.35;60.99
70458;BME280;57919;56.194;95.716;2022-11-20T22:03:00;99364.06;;;-16.10;61.43
70458;BME280;57919;56.194;95.716;2022-11-20T22:13:02;99344.59;;;-16.35;60.86
70458;BME280;57919;56.194;95.716;2022-11-20T22:23:22;99355.94;;;-16.71;61.30
70458;BME280;57919;56.194;95.716;2022-11-20T22:33:25;99325.03;;;-17.04;61.73
70458;BME280;57919;56.194;95.716;2022-11-20T22:43:28;99377.53;;;-17.08;62.16
70458;BME280;57919;56.194;95.716;2022-11-20T22:53:41;99366.53;;;-16.99;62.71
70458;BME280;57919;56.194;95.716;2022-11-20T23:03:45;99365.13;;;-16.85;62.66
70458;BME280;57919;56.194;95.716;2022-11-20T23:13:57;99367.63;;;-16.88;62.46
70458;BME280;57919;56.194;95.716;2022-11-20T23:23:59;99327.94;;;-16.90;62.92
70458;BME280;57919;56.194;95.716;2022-11-20T23:34:02;99339.03;;;-16.53;62.57
70458;BME280;57919;56.194;95.716;2022-11-20T23:44:04;99314.28;;;-16.41;61.91
70458;BME280;57919;56.194;95.716;2022-11-20T23:54:06;99306.47;;;-16.42;62.30
